sensor_id;sensor_type;location;lat;lon;timestamp;P1;durP1;ratioP1;P2;durP2;ratioP2
80823;SDS011;70538;59.122;37.876;2023-07-09T00:02:08;13.65;;;3.83;;
80823;SDS011;70538;59.122;37.876;2023-07-09T00:04:38;11.00;;;3.50;;
80823;SDS011;70538;59.122;37.876;2023-07-09T00:07:08;11.37;;;3.60;;
80823;SDS011;70538;59.122;37.876;2023-07-09T00:09:43;11.43;;;3.53;;
80823;SDS011;70538;59.122;37.876;2023-07-09T00:12:15;12.15;;;3.47;;
80823;SDS011;70538;59.122;37.876;2023-07-09T00:14:44;8.25;;;2.83;;
80823;SDS011;70538;59.122;37.876;2023-07-09T00:17:20;7.00;;;2.88;;
80823;SDS011;70538;59.122;37.876;2023-07-09T00:19:52;7.63;;;3.13;;
80823;SDS011;70538;59.122;37.876;2023-07-09T00:22:20;7.47;;;2.63;;
80823;SDS011;70538;59.122;37.876;2023-07-09T00:24:51;6.78;;;2.47;;
80823;SDS011;70538;59.122;37.876;2023-07-09T00:27:19;9.27;;;3.13;;
80823;SDS011;70538;59.122;37.876;2023-07-09T00:29:50;10.38;;;3.33;;
80823;SDS011;70538;59.122;37.876;2023-07-09T00:32:20;10.90;;;3.33;;
80823;SDS011;70538;59.122;37.876;2023-07-09T00:34:48;9.55;;;3.75;;
80823;SDS011;70538;59.122;37.876;2023-07-09T00:37:17;9.52;;;2.95;;
80823;SDS011;70538;59.122;37.876;2023-07-09T00:39:47;7.93;;;2.70;;
80823;SDS011;70538;59.122;37.876;2023-07-09T00:42:16;8.23;;;3.00;;
80823;SDS011;70538;59.122;37.876;2023-07-09T00:44:51;8.40;;;2.53;;
80823;SDS011;70538;59.122;37.876;2023-07-09T00:47:26;7.03;;;2.20;;
80823;SDS011;70538;59.122;37.876;2023-07-09T00:50:20;10.63;;;2.97;;
80823;SDS011;70538;59.122;37.876;2023-07-09T00:53:10;10.82;;;2.72;;
80823;SDS011;70538;59.122;37.876;2023-07-09T00:55:47;9.80;;;2.78;;
80823;SDS011;70538;59.122;37.876;2023-07-09T00:58:20;10.53;;;3.00;;
80823;SDS011;70538;59.122;37.876;2023-07-09T01:00:50;10.70;;;2.85;;
80823;SDS011;70538;59.122;37.876;2023-07-09T01:03:43;13.45;;;3.00;;
80823;SDS011;70538;59.122;37.876;2023-07-09T01:06:15;8.23;;;2.75;;
80823;SDS011;70538;59.122;37.876;2023-07-09T01:08:49;11.02;;;3.40;;
80823;SDS011;70538;59.122;37.876;2023-07-09T01:11:25;13.87;;;3.53;;
80823;SDS011;70538;59.122;37.876;2023-07-09T01:13:54;11.38;;;3.35;;
80823;SDS011;70538;59.122;37.876;2023-07-09T01:16:26;12.07;;;3.40;;
80823;SDS011;70538;59.122;37.876;2023-07-09T01:18:58;10.30;;;3.67;;
80823;SDS011;70538;59.122;37.876;2023-07-09T01:21:25;9.88;;;3.38;;
80823;SDS011;70538;59.122;37.876;2023-07-09T01:23:54;11.20;;;3.43;;
80823;SDS011;70538;59.122;37.876;2023-07-09T01:26:23;10.88;;;3.55;;
80823;SDS011;70538;59.122;37.876;2023-07-09T01:28:55;10.38;;;3.25;;
80823;SDS011;70538;59.122;37.876;2023-07-09T01:31:24;10.02;;;3.30;;
80823;SDS011;70538;59.122;37.876;2023-07-09T01:33:51;12.90;;;3.55;;
80823;SDS011;70538;59.122;37.876;2023-07-09T01:36:20;9.03;;;3.33;;
80823;SDS011;70538;59.122;37.876;2023-07-09T01:38:52;9.27;;;3.47;;
80823;SDS011;70538;59.122;37.876;2023-07-09T01:41:21;16.08;;;3.83;;
80823;SDS011;70538;59.122;37.876;2023-07-09T01:43:49;11.60;;;3.80;;
80823;SDS011;70538;59.122;37.876;2023-07-09T01:46:17;11.73;;;3.80;;
80823;SDS011;70538;59.122;37.876;2023-07-09T01:48:45;16.87;;;4.40;;
80823;SDS011;70538;59.122;37.876;2023-07-09T01:51:14;16.92;;;4.90;;
80823;SDS011;70538;59.122;37.876;2023-07-09T01:53:43;15.88;;;4.40;;
80823;SDS011;70538;59.122;37.876;2023-07-09T01:56:14;15.45;;;4.43;;
80823;SDS011;70538;59.122;37.876;2023-07-09T01:58:41;16.23;;;3.92;;
80823;SDS011;70538;59.122;37.876;2023-07-09T02:01:09;15.77;;;3.70;;
80823;SDS011;70538;59.122;37.876;2023-07-09T02:03:37;14.18;;;4.00;;
80823;SDS011;70538;59.122;37.876;2023-07-09T02:06:05;11.93;;;3.45;;
80823;SDS011;70538;59.122;37.876;2023-07-09T02:08:37;10.80;;;3.60;;
80823;SDS011;70538;59.122;37.876;2023-07-09T02:11:05;12.02;;;3.22;;
80823;SDS011;70538;59.122;37.876;2023-07-09T02:13:33;9.63;;;2.93;;
80823;SDS011;70538;59.122;37.876;2023-07-09T02:16:01;13.48;;;4.25;;
80823;SDS011;70538;59.122;37.876;2023-07-09T02:18:29;17.92;;;3.30;;
80823;SDS011;70538;59.122;37.876;2023-07-09T02:20:57;11.50;;;3.25;;
80823;SDS011;70538;59.122;37.876;2023-07-09T02:23:27;11.15;;;3.38;;
80823;SDS011;70538;59.122;37.876;2023-07-09T02:25:55;15.37;;;4.10;;
80823;SDS011;70538;59.122;37.876;2023-07-09T02:28:23;11.07;;;3.88;;
80823;SDS011;70538;59.122;37.876;2023-07-09T02:30:51;11.75;;;3.58;;
80823;SDS011;70538;59.122;37.876;2023-07-09T02:33:20;12.05;;;3.42;;
80823;SDS011;70538;59.122;37.876;2023-07-09T02:35:48;17.13;;;4.13;;
80823;SDS011;70538;59.122;37.876;2023-07-09T02:38:18;13.97;;;4.07;;
80823;SDS011;70538;59.122;37.876;2023-07-09T02:40:48;19.63;;;4.40;;
80823;SDS011;70538;59.122;37.876;2023-07-09T02:43:16;16.70;;;3.90;;
80823;SDS011;70538;59.122;37.876;2023-07-09T02:45:43;19.77;;;4.40;;
80823;SDS011;70538;59.122;37.876;2023-07-09T02:48:11;14.18;;;3.92;;
80823;SDS011;70538;59.122;37.876;2023-07-09T02:50:39;12.47;;;4.27;;
80823;SDS011;70538;59.122;37.876;2023-07-09T02:53:06;9.60;;;3.33;;
80823;SDS011;70538;59.122;37.876;2023-07-09T02:55:34;15.57;;;3.92;;
80823;SDS011;70538;59.122;37.876;2023-07-09T02:58:02;13.38;;;4.28;;
80823;SDS011;70538;59.122;37.876;2023-07-09T03:00:30;16.35;;;4.18;;
80823;SDS011;70538;59.122;37.876;2023-07-09T03:03:01;13.40;;;4.23;;
80823;SDS011;70538;59.122;37.876;2023-07-09T03:05:28;17.50;;;4.15;;
80823;SDS011;70538;59.122;37.876;2023-07-09T03:07:56;22.05;;;3.97;;
80823;SDS011;70538;59.122;37.876;2023-07-09T03:10:24;14.52;;;4.03;;
80823;SDS011;70538;59.122;37.876;2023-07-09T03:12:52;19.95;;;4.20;;
80823;SDS011;70538;59.122;37.876;2023-07-09T03:15:19;21.63;;;4.70;;
80823;SDS011;70538;59.122;37.876;2023-07-09T03:17:49;15.68;;;3.75;;
80823;SDS011;70538;59.122;37.876;2023-07-09T03:20:17;13.30;;;3.47;;
80823;SDS011;70538;59.122;37.876;2023-07-09T03:22:45;11.90;;;3.58;;
80823;SDS011;70538;59.122;37.876;2023-07-09T03:25:13;13.00;;;3.75;;
80823;SDS011;70538;59.122;37.876;2023-07-09T03:27:40;16.90;;;3.70;;
80823;SDS011;70538;59.122;37.876;2023-07-09T03:30:08;11.48;;;4.35;;
80823;SDS011;70538;59.122;37.876;2023-07-09T03:32:36;10.35;;;4.53;;
80823;SDS011;70538;59.122;37.876;2023-07-09T03:35:04;10.98;;;4.00;;
80823;SDS011;70538;59.122;37.876;2023-07-09T03:37:32;13.15;;;3.88;;
80823;SDS011;70538;59.122;37.876;2023-07-09T03:40:00;12.10;;;4.47;;
80823;SDS011;70538;59.122;37.876;2023-07-09T03:42:29;15.77;;;4.35;;
80823;SDS011;70538;59.122;37.876;2023-07-09T03:44:57;11.68;;;3.70;;
80823;SDS011;70538;59.122;37.876;2023-07-09T03:47:25;15.65;;;4.10;;
80823;SDS011;70538;59.122;37.876;2023-07-09T03:49:52;11.27;;;3.60;;
80823;SDS011;70538;59.122;37.876;2023-07-09T03:52:20;13.67;;;4.00;;
80823;SDS011;70538;59.122;37.876;2023-07-09T03:54:48;10.85;;;4.10;;
80823;SDS011;70538;59.122;37.876;2023-07-09T03:57:16;10.43;;;4.22;;
80823;SDS011;70538;59.122;37.876;2023-07-09T03:59:43;10.23;;;3.78;;
80823;SDS011;70538;59.122;37.876;2023-07-09T04:02:11;23.38;;;6.18;;
80823;SDS011;70538;59.122;37.876;2023-07-09T04:04:41;11.83;;;4.50;;
80823;SDS011;70538;59.122;37.876;2023-07-09T04:07:10;20.45;;;6.05;;
80823;SDS011;70538;59.122;37.876;2023-07-09T04:09:38;14.43;;;5.68;;
80823;SDS011;70538;59.122;37.876;2023-07-09T04:12:06;14.65;;;5.32;;
80823;SDS011;70538;59.122;37.876;2023-07-09T04:14:34;11.80;;;5.13;;
80823;SDS011;70538;59.122;37.876;2023-07-09T04:17:02;14.97;;;4.60;;
80823;SDS011;70538;59.122;37.876;2023-07-09T04:19:30;13.98;;;4.90;;
80823;SDS011;70538;59.122;37.876;2023-07-09T04:21:58;14.43;;;5.32;;
80823;SDS011;70538;59.122;37.876;2023-07-09T04:24:25;17.42;;;5.38;;
80823;SDS011;70538;59.122;37.876;2023-07-09T04:26:54;14.93;;;4.28;;
80823;SDS011;70538;59.122;37.876;2023-07-09T04:29:23;25.03;;;7.33;;
80823;SDS011;70538;59.122;37.876;2023-07-09T04:31:51;13.05;;;4.50;;
80823;SDS011;70538;59.122;37.876;2023-07-09T04:34:19;10.75;;;3.75;;
80823;SDS011;70538;59.122;37.876;2023-07-09T04:36:46;9.80;;;3.65;;
80823;SDS011;70538;59.122;37.876;2023-07-09T04:39:14;15.25;;;4.57;;
80823;SDS011;70538;59.122;37.876;2023-07-09T04:41:42;20.20;;;5.30;;
80823;SDS011;70538;59.122;37.876;2023-07-09T04:44:10;9.80;;;4.07;;
80823;SDS011;70538;59.122;37.876;2023-07-09T04:46:37;9.25;;;3.40;;
80823;SDS011;70538;59.122;37.876;2023-07-09T04:49:05;11.20;;;3.88;;
80823;SDS011;70538;59.122;37.876;2023-07-09T04:51:33;8.57;;;3.60;;
80823;SDS011;70538;59.122;37.876;2023-07-09T04:54:00;11.30;;;3.60;;
80823;SDS011;70538;59.122;37.876;2023-07-09T04:56:31;14.15;;;4.13;;
80823;SDS011;70538;59.122;37.876;2023-07-09T04:58:58;12.40;;;4.10;;
80823;SDS011;70538;59.122;37.876;2023-07-09T05:01:27;16.52;;;6.07;;
80823;SDS011;70538;59.122;37.876;2023-07-09T05:03:55;15.25;;;6.63;;
80823;SDS011;70538;59.122;37.876;2023-07-09T05:06:23;17.30;;;6.70;;
80823;SDS011;70538;59.122;37.876;2023-07-09T05:08:52;19.17;;;7.18;;
80823;SDS011;70538;59.122;37.876;2023-07-09T05:11:19;19.55;;;7.00;;
80823;SDS011;70538;59.122;37.876;2023-07-09T05:13:47;15.27;;;5.95;;
80823;SDS011;70538;59.122;37.876;2023-07-09T05:16:19;16.27;;;6.20;;
80823;SDS011;70538;59.122;37.876;2023-07-09T05:18:50;12.93;;;5.37;;
80823;SDS011;70538;59.122;37.876;2023-07-09T05:21:18;11.68;;;5.32;;
80823;SDS011;70538;59.122;37.876;2023-07-09T05:23:46;13.13;;;5.90;;
80823;SDS011;70538;59.122;37.876;2023-07-09T05:26:14;16.52;;;6.40;;
80823;SDS011;70538;59.122;37.876;2023-07-09T05:28:42;14.90;;;6.00;;
80823;SDS011;70538;59.122;37.876;2023-07-09T05:31:11;15.23;;;5.87;;
80823;SDS011;70538;59.122;37.876;2023-07-09T05:33:39;14.05;;;5.82;;
80823;SDS011;70538;59.122;37.876;2023-07-09T05:36:08;17.27;;;5.90;;
80823;SDS011;70538;59.122;37.876;2023-07-09T05:38:43;11.73;;;4.72;;
80823;SDS011;70538;59.122;37.876;2023-07-09T05:41:11;13.98;;;4.32;;
80823;SDS011;70538;59.122;37.876;2023-07-09T05:43:39;11.80;;;4.77;;
80823;SDS011;70538;59.122;37.876;2023-07-09T05:46:07;10.95;;;4.45;;
80823;SDS011;70538;59.122;37.876;2023-07-09T05:48:34;13.48;;;5.10;;
80823;SDS011;70538;59.122;37.876;2023-07-09T05:51:04;10.55;;;4.65;;
80823;SDS011;70538;59.122;37.876;2023-07-09T05:53:32;8.02;;;3.50;;
80823;SDS011;70538;59.122;37.876;2023-07-09T05:56:00;9.67;;;4.17;;
80823;SDS011;70538;59.122;37.876;2023-07-09T05:58:29;19.67;;;7.68;;
80823;SDS011;70538;59.122;37.876;2023-07-09T06:00:57;28.50;;;7.22;;
80823;SDS011;70538;59.122;37.876;2023-07-09T06:03:25;17.67;;;6.07;;
80823;SDS011;70538;59.122;37.876;2023-07-09T06:05:55;7.38;;;2.80;;
80823;SDS011;70538;59.122;37.876;2023-07-09T06:08:24;19.53;;;4.90;;
80823;SDS011;70538;59.122;37.876;2023-07-09T06:10:57;14.13;;;6.75;;
80823;SDS011;70538;59.122;37.876;2023-07-09T06:13:28;20.15;;;6.90;;
80823;SDS011;70538;59.122;37.876;2023-07-09T06:16:01;19.58;;;8.23;;
80823;SDS011;70538;59.122;37.876;2023-07-09T06:18:29;22.58;;;9.13;;
80823;SDS011;70538;59.122;37.876;2023-07-09T06:20:58;17.60;;;5.50;;
80823;SDS011;70538;59.122;37.876;2023-07-09T06:23:27;9.80;;;3.60;;
80823;SDS011;70538;59.122;37.876;2023-07-09T06:25:56;9.10;;;3.85;;
80823;SDS011;70538;59.122;37.876;2023-07-09T06:28:24;6.47;;;2.67;;
80823;SDS011;70538;59.122;37.876;2023-07-09T06:30:53;9.85;;;3.25;;
80823;SDS011;70538;59.122;37.876;2023-07-09T06:33:21;13.30;;;4.30;;
80823;SDS011;70538;59.122;37.876;2023-07-09T06:35:51;7.55;;;3.05;;
80823;SDS011;70538;59.122;37.876;2023-07-09T06:38:28;7.78;;;2.90;;
80823;SDS011;70538;59.122;37.876;2023-07-09T06:40:58;8.50;;;3.35;;
80823;SDS011;70538;59.122;37.876;2023-07-09T06:43:26;11.32;;;4.18;;
80823;SDS011;70538;59.122;37.876;2023-07-09T06:45:55;11.47;;;3.60;;
80823;SDS011;70538;59.122;37.876;2023-07-09T06:48:26;8.88;;;3.83;;
80823;SDS011;70538;59.122;37.876;2023-07-09T06:50:55;11.43;;;4.93;;
80823;SDS011;70538;59.122;37.876;2023-07-09T06:53:25;5.72;;;2.20;;
80823;SDS011;70538;59.122;37.876;2023-07-09T06:55:53;10.05;;;4.75;;
80823;SDS011;70538;59.122;37.876;2023-07-09T06:58:26;13.17;;;4.13;;
80823;SDS011;70538;59.122;37.876;2023-07-09T07:00:55;8.27;;;3.40;;
80823;SDS011;70538;59.122;37.876;2023-07-09T07:03:23;6.70;;;2.97;;
80823;SDS011;70538;59.122;37.876;2023-07-09T07:05:52;5.38;;;2.53;;
80823;SDS011;70538;59.122;37.876;2023-07-09T07:08:24;13.18;;;5.93;;
80823;SDS011;70538;59.122;37.876;2023-07-09T07:10:56;10.03;;;4.00;;
80823;SDS011;70538;59.122;37.876;2023-07-09T07:16:03;7.53;;;2.88;;
80823;SDS011;70538;59.122;37.876;2023-07-09T07:18:38;8.50;;;3.47;;
80823;SDS011;70538;59.122;37.876;2023-07-09T07:21:06;14.23;;;4.60;;
80823;SDS011;70538;59.122;37.876;2023-07-09T07:23:34;9.80;;;3.40;;
80823;SDS011;70538;59.122;37.876;2023-07-09T07:26:03;12.73;;;3.08;;
80823;SDS011;70538;59.122;37.876;2023-07-09T07:28:33;7.20;;;2.80;;
80823;SDS011;70538;59.122;37.876;2023-07-09T07:31:06;6.15;;;2.05;;
80823;SDS011;70538;59.122;37.876;2023-07-09T07:33:37;12.38;;;5.70;;
80823;SDS011;70538;59.122;37.876;2023-07-09T07:36:06;11.67;;;4.27;;
80823;SDS011;70538;59.122;37.876;2023-07-09T07:38:38;11.73;;;4.10;;
80823;SDS011;70538;59.122;37.876;2023-07-09T07:41:06;12.25;;;4.53;;
80823;SDS011;70538;59.122;37.876;2023-07-09T07:43:34;12.98;;;3.80;;
80823;SDS011;70538;59.122;37.876;2023-07-09T07:46:02;15.38;;;5.68;;
80823;SDS011;70538;59.122;37.876;2023-07-09T07:48:30;17.33;;;6.13;;
80823;SDS011;70538;59.122;37.876;2023-07-09T07:50:59;14.05;;;5.40;;
80823;SDS011;70538;59.122;37.876;2023-07-09T07:53:29;12.38;;;4.28;;
80823;SDS011;70538;59.122;37.876;2023-07-09T07:55:58;9.77;;;4.32;;
80823;SDS011;70538;59.122;37.876;2023-07-09T07:58:26;14.00;;;5.38;;
80823;SDS011;70538;59.122;37.876;2023-07-09T08:00:54;15.87;;;7.10;;
80823;SDS011;70538;59.122;37.876;2023-07-09T08:03:24;14.73;;;5.47;;
80823;SDS011;70538;59.122;37.876;2023-07-09T08:05:52;20.20;;;9.27;;
80823;SDS011;70538;59.122;37.876;2023-07-09T08:08:22;19.48;;;8.50;;
80823;SDS011;70538;59.122;37.876;2023-07-09T08:10:50;20.42;;;9.80;;
80823;SDS011;70538;59.122;37.876;2023-07-09T08:13:18;24.33;;;10.00;;
80823;SDS011;70538;59.122;37.876;2023-07-09T08:15:46;19.58;;;9.52;;
80823;SDS011;70538;59.122;37.876;2023-07-09T08:18:18;24.27;;;10.15;;
80823;SDS011;70538;59.122;37.876;2023-07-09T08:20:46;26.05;;;9.65;;
80823;SDS011;70538;59.122;37.876;2023-07-09T08:23:14;19.52;;;7.72;;
80823;SDS011;70538;59.122;37.876;2023-07-09T08:25:41;15.17;;;5.67;;
80823;SDS011;70538;59.122;37.876;2023-07-09T08:28:11;14.63;;;4.88;;
80823;SDS011;70538;59.122;37.876;2023-07-09T08:30:39;12.18;;;4.25;;
80823;SDS011;70538;59.122;37.876;2023-07-09T08:33:07;9.52;;;3.42;;
80823;SDS011;70538;59.122;37.876;2023-07-09T08:35:35;9.05;;;3.47;;
80823;SDS011;70538;59.122;37.876;2023-07-09T08:38:03;15.67;;;5.90;;
80823;SDS011;70538;59.122;37.876;2023-07-09T08:40:31;12.77;;;5.28;;
80823;SDS011;70538;59.122;37.876;2023-07-09T08:43:02;19.08;;;5.60;;
80823;SDS011;70538;59.122;37.876;2023-07-09T08:45:41;11.50;;;4.05;;
80823;SDS011;70538;59.122;37.876;2023-07-09T08:48:26;14.15;;;5.95;;
80823;SDS011;70538;59.122;37.876;2023-07-09T08:51:33;8.27;;;3.50;;
80823;SDS011;70538;59.122;37.876;2023-07-09T08:53:56;15.40;;;5.57;;
80823;SDS011;70538;59.122;37.876;2023-07-09T08:56:26;14.70;;;4.72;;
80823;SDS011;70538;59.122;37.876;2023-07-09T08:58:56;13.00;;;4.57;;
80823;SDS011;70538;59.122;37.876;2023-07-09T09:04:05;14.57;;;4.07;;
80823;SDS011;70538;59.122;37.876;2023-07-09T09:06:41;15.15;;;4.75;;
80823;SDS011;70538;59.122;37.876;2023-07-09T09:14:56;15.13;;;4.60;;
80823;SDS011;70538;59.122;37.876;2023-07-09T09:17:26;11.00;;;3.57;;
80823;SDS011;70538;59.122;37.876;2023-07-09T09:19:58;12.98;;;4.32;;
80823;SDS011;70538;59.122;37.876;2023-07-09T09:22:53;16.23;;;6.50;;
80823;SDS011;70538;59.122;37.876;2023-07-09T09:25:44;6.32;;;2.50;;
80823;SDS011;70538;59.122;37.876;2023-07-09T09:28:34;5.32;;;1.40;;
80823;SDS011;70538;59.122;37.876;2023-07-09T09:31:03;5.53;;;1.73;;
80823;SDS011;70538;59.122;37.876;2023-07-09T09:33:44;6.68;;;1.60;;
80823;SDS011;70538;59.122;37.876;2023-07-09T09:36:19;7.68;;;2.00;;
80823;SDS011;70538;59.122;37.876;2023-07-09T09:38:48;6.28;;;1.83;;
80823;SDS011;70538;59.122;37.876;2023-07-09T09:41:19;5.63;;;2.10;;
80823;SDS011;70538;59.122;37.876;2023-07-09T09:43:49;8.70;;;3.00;;
80823;SDS011;70538;59.122;37.876;2023-07-09T09:46:21;15.63;;;6.07;;
80823;SDS011;70538;59.122;37.876;2023-07-09T09:48:58;6.75;;;2.40;;
80823;SDS011;70538;59.122;37.876;2023-07-09T09:51:27;13.88;;;4.38;;
80823;SDS011;70538;59.122;37.876;2023-07-09T09:53:57;13.43;;;4.60;;
80823;SDS011;70538;59.122;37.876;2023-07-09T09:56:35;10.90;;;2.90;;
80823;SDS011;70538;59.122;37.876;2023-07-09T09:59:05;7.60;;;2.83;;
80823;SDS011;70538;59.122;37.876;2023-07-09T10:01:35;15.07;;;5.10;;
80823;SDS011;70538;59.122;37.876;2023-07-09T10:04:05;13.23;;;4.03;;
80823;SDS011;70538;59.122;37.876;2023-07-09T10:06:37;5.38;;;2.10;;
80823;SDS011;70538;59.122;37.876;2023-07-09T10:09:13;9.07;;;2.07;;
80823;SDS011;70538;59.122;37.876;2023-07-09T10:17:39;19.45;;;6.00;;
80823;SDS011;70538;59.122;37.876;2023-07-09T10:20:28;9.15;;;3.58;;
80823;SDS011;70538;59.122;37.876;2023-07-09T10:34:57;6.20;;;2.42;;
80823;SDS011;70538;59.122;37.876;2023-07-09T10:40:04;6.05;;;2.00;;
80823;SDS011;70538;59.122;37.876;2023-07-09T10:42:42;6.18;;;2.58;;
80823;SDS011;70538;59.122;37.876;2023-07-09T10:45:15;16.08;;;5.45;;
80823;SDS011;70538;59.122;37.876;2023-07-09T10:47:52;10.55;;;4.07;;
80823;SDS011;70538;59.122;37.876;2023-07-09T10:50:41;10.07;;;3.73;;
80823;SDS011;70538;59.122;37.876;2023-07-09T10:53:17;8.52;;;2.92;;
80823;SDS011;70538;59.122;37.876;2023-07-09T10:56:22;9.45;;;2.72;;
80823;SDS011;70538;59.122;37.876;2023-07-09T10:58:53;22.02;;;7.50;;
80823;SDS011;70538;59.122;37.876;2023-07-09T11:01:47;10.93;;;3.78;;
80823;SDS011;70538;59.122;37.876;2023-07-09T11:04:27;11.83;;;4.00;;
80823;SDS011;70538;59.122;37.876;2023-07-09T11:06:59;9.68;;;3.45;;
80823;SDS011;70538;59.122;37.876;2023-07-09T11:09:32;13.18;;;4.65;;
80823;SDS011;70538;59.122;37.876;2023-07-09T11:12:08;15.85;;;5.50;;
80823;SDS011;70538;59.122;37.876;2023-07-09T11:14:59;8.70;;;2.67;;
80823;SDS011;70538;59.122;37.876;2023-07-09T11:17:51;13.10;;;3.40;;
80823;SDS011;70538;59.122;37.876;2023-07-09T11:20:21;11.02;;;2.95;;
80823;SDS011;70538;59.122;37.876;2023-07-09T11:22:56;17.27;;;5.60;;
80823;SDS011;70538;59.122;37.876;2023-07-09T11:28:13;22.88;;;7.57;;
80823;SDS011;70538;59.122;37.876;2023-07-09T11:30:51;11.50;;;4.10;;
80823;SDS011;70538;59.122;37.876;2023-07-09T11:33:28;8.20;;;2.80;;
80823;SDS011;70538;59.122;37.876;2023-07-09T11:36:13;5.60;;;1.92;;
80823;SDS011;70538;59.122;37.876;2023-07-09T11:38:50;10.85;;;2.85;;
80823;SDS011;70538;59.122;37.876;2023-07-09T11:44:10;10.60;;;1.60;;
80823;SDS011;70538;59.122;37.876;2023-07-09T11:46:57;5.60;;;1.80;;
80823;SDS011;70538;59.122;37.876;2023-07-09T11:52:47;8.45;;;2.95;;
80823;SDS011;70538;59.122;37.876;2023-07-09T11:55:41;7.78;;;2.85;;
80823;SDS011;70538;59.122;37.876;2023-07-09T11:58:11;6.70;;;1.70;;
80823;SDS011;70538;59.122;37.876;2023-07-09T12:00:41;5.95;;;1.92;;
80823;SDS011;70538;59.122;37.876;2023-07-09T12:06:02;8.40;;;2.80;;
80823;SDS011;70538;59.122;37.876;2023-07-09T12:08:36;11.98;;;4.30;;
80823;SDS011;70538;59.122;37.876;2023-07-09T12:11:06;8.63;;;2.27;;
80823;SDS011;70538;59.122;37.876;2023-07-09T12:13:51;11.93;;;3.88;;
80823;SDS011;70538;59.122;37.876;2023-07-09T12:16:21;15.40;;;4.63;;
80823;SDS011;70538;59.122;37.876;2023-07-09T12:18:52;11.80;;;3.60;;
80823;SDS011;70538;59.122;37.876;2023-07-09T12:21:20;21.05;;;5.25;;
80823;SDS011;70538;59.122;37.876;2023-07-09T12:23:50;22.40;;;8.70;;
80823;SDS011;70538;59.122;37.876;2023-07-09T12:26:19;12.32;;;3.97;;
80823;SDS011;70538;59.122;37.876;2023-07-09T12:28:56;6.63;;;2.60;;
80823;SDS011;70538;59.122;37.876;2023-07-09T12:31:26;6.55;;;2.30;;
80823;SDS011;70538;59.122;37.876;2023-07-09T12:33:56;10.20;;;3.00;;
80823;SDS011;70538;59.122;37.876;2023-07-09T12:36:25;9.20;;;3.80;;
80823;SDS011;70538;59.122;37.876;2023-07-09T12:39:00;9.02;;;3.70;;
80823;SDS011;70538;59.122;37.876;2023-07-09T12:44:13;6.47;;;1.80;;
80823;SDS011;70538;59.122;37.876;2023-07-09T12:46:44;7.53;;;2.17;;
80823;SDS011;70538;59.122;37.876;2023-07-09T12:49:21;16.77;;;6.73;;
80823;SDS011;70538;59.122;37.876;2023-07-09T12:51:50;12.85;;;5.40;;
80823;SDS011;70538;59.122;37.876;2023-07-09T12:54:19;11.85;;;4.63;;
80823;SDS011;70538;59.122;37.876;2023-07-09T12:56:51;9.30;;;3.20;;
80823;SDS011;70538;59.122;37.876;2023-07-09T12:59:21;8.25;;;2.17;;
80823;SDS011;70538;59.122;37.876;2023-07-09T13:01:55;6.87;;;1.97;;
80823;SDS011;70538;59.122;37.876;2023-07-09T13:04:31;6.00;;;2.33;;
80823;SDS011;70538;59.122;37.876;2023-07-09T13:07:02;18.02;;;5.50;;
80823;SDS011;70538;59.122;37.876;2023-07-09T13:09:31;7.32;;;2.20;;
80823;SDS011;70538;59.122;37.876;2023-07-09T13:11:59;5.38;;;1.83;;
80823;SDS011;70538;59.122;37.876;2023-07-09T13:14:30;8.30;;;1.63;;
80823;SDS011;70538;59.122;37.876;2023-07-09T13:17:06;12.45;;;3.80;;
80823;SDS011;70538;59.122;37.876;2023-07-09T13:19:39;18.10;;;9.63;;
80823;SDS011;70538;59.122;37.876;2023-07-09T13:22:07;23.70;;;8.13;;
80823;SDS011;70538;59.122;37.876;2023-07-09T13:24:39;8.95;;;3.17;;
80823;SDS011;70538;59.122;37.876;2023-07-09T13:27:08;8.73;;;2.30;;
80823;SDS011;70538;59.122;37.876;2023-07-09T13:29:39;9.40;;;2.92;;
80823;SDS011;70538;59.122;37.876;2023-07-09T13:32:10;10.90;;;4.50;;
80823;SDS011;70538;59.122;37.876;2023-07-09T13:34:39;12.90;;;4.05;;
80823;SDS011;70538;59.122;37.876;2023-07-09T13:37:15;12.70;;;4.50;;
80823;SDS011;70538;59.122;37.876;2023-07-09T13:39:43;12.10;;;4.50;;
80823;SDS011;70538;59.122;37.876;2023-07-09T13:42:13;6.97;;;2.50;;
80823;SDS011;70538;59.122;37.876;2023-07-09T13:44:45;8.70;;;2.75;;
80823;SDS011;70538;59.122;37.876;2023-07-09T13:47:16;16.95;;;6.68;;
80823;SDS011;70538;59.122;37.876;2023-07-09T13:49:46;18.48;;;7.10;;
80823;SDS011;70538;59.122;37.876;2023-07-09T13:52:23;10.60;;;4.53;;
80823;SDS011;70538;59.122;37.876;2023-07-09T13:54:52;7.90;;;2.05;;
80823;SDS011;70538;59.122;37.876;2023-07-09T13:57:21;7.63;;;2.28;;
80823;SDS011;70538;59.122;37.876;2023-07-09T13:59:49;7.78;;;1.80;;
80823;SDS011;70538;59.122;37.876;2023-07-09T14:02:24;5.35;;;1.38;;
80823;SDS011;70538;59.122;37.876;2023-07-09T14:05:00;4.20;;;1.10;;
80823;SDS011;70538;59.122;37.876;2023-07-09T14:07:36;5.63;;;1.27;;
80823;SDS011;70538;59.122;37.876;2023-07-09T14:10:12;4.68;;;1.08;;
80823;SDS011;70538;59.122;37.876;2023-07-09T14:12:45;5.35;;;1.10;;
80823;SDS011;70538;59.122;37.876;2023-07-09T14:15:15;6.68;;;3.00;;
80823;SDS011;70538;59.122;37.876;2023-07-09T14:17:45;7.47;;;1.70;;
80823;SDS011;70538;59.122;37.876;2023-07-09T14:20:15;6.05;;;1.40;;
80823;SDS011;70538;59.122;37.876;2023-07-09T14:22:45;6.85;;;2.38;;
80823;SDS011;70538;59.122;37.876;2023-07-09T14:25:22;6.38;;;2.50;;
80823;SDS011;70538;59.122;37.876;2023-07-09T14:27:51;5.50;;;1.60;;
80823;SDS011;70538;59.122;37.876;2023-07-09T14:30:21;7.23;;;2.77;;
80823;SDS011;70538;59.122;37.876;2023-07-09T14:32:53;11.27;;;4.13;;
80823;SDS011;70538;59.122;37.876;2023-07-09T14:35:22;7.50;;;2.72;;
80823;SDS011;70538;59.122;37.876;2023-07-09T14:37:52;6.97;;;2.53;;
80823;SDS011;70538;59.122;37.876;2023-07-09T14:40:21;8.20;;;2.22;;
80823;SDS011;70538;59.122;37.876;2023-07-09T14:42:49;9.70;;;3.00;;
80823;SDS011;70538;59.122;37.876;2023-07-09T14:45:19;13.63;;;4.75;;
80823;SDS011;70538;59.122;37.876;2023-07-09T14:47:49;12.57;;;4.03;;
80823;SDS011;70538;59.122;37.876;2023-07-09T14:50:18;9.75;;;3.20;;
80823;SDS011;70538;59.122;37.876;2023-07-09T14:52:48;10.02;;;3.20;;
80823;SDS011;70538;59.122;37.876;2023-07-09T14:55:17;15.07;;;4.17;;
80823;SDS011;70538;59.122;37.876;2023-07-09T14:57:47;11.18;;;3.30;;
80823;SDS011;70538;59.122;37.876;2023-07-09T15:00:20;7.07;;;3.05;;
80823;SDS011;70538;59.122;37.876;2023-07-09T15:02:50;11.77;;;3.90;;
80823;SDS011;70538;59.122;37.876;2023-07-09T15:05:20;14.90;;;4.00;;
80823;SDS011;70538;59.122;37.876;2023-07-09T15:07:50;8.97;;;3.97;;
80823;SDS011;70538;59.122;37.876;2023-07-09T15:10:25;5.90;;;2.10;;
80823;SDS011;70538;59.122;37.876;2023-07-09T15:12:56;16.45;;;5.57;;
80823;SDS011;70538;59.122;37.876;2023-07-09T15:15:29;20.05;;;6.03;;
80823;SDS011;70538;59.122;37.876;2023-07-09T15:18:12;11.77;;;4.18;;
80823;SDS011;70538;59.122;37.876;2023-07-09T15:21:00;8.63;;;3.20;;
80823;SDS011;70538;59.122;37.876;2023-07-09T15:23:31;4.97;;;1.70;;
80823;SDS011;70538;59.122;37.876;2023-07-09T15:26:04;5.55;;;1.73;;
80823;SDS011;70538;59.122;37.876;2023-07-09T15:28:40;5.00;;;1.30;;
80823;SDS011;70538;59.122;37.876;2023-07-09T15:31:10;4.38;;;1.50;;
80823;SDS011;70538;59.122;37.876;2023-07-09T15:33:38;4.63;;;1.27;;
80823;SDS011;70538;59.122;37.876;2023-07-09T15:36:10;7.95;;;2.30;;